Time;durP1;ratioP1;P1;durP2;ratioP2;P2;SDS_P1;SDS_P2;PMS_P1;PMS_P2;Temp;Humidity;BMP_temperature;BMP_pressure;BME280_temperature;BME280_humidity;BME280_pressure;Samples;Min_cycle;Max_cycle;Signal;HPM_P1;HPM_P2
2022/06/12 00:00:37;;;;;;;32.30;15.60;;;;;;;24.61;32.75;98971.81;25097;1315;3026862;-66
2022/06/12 00:03:08;;;;;;;42.00;16.90;;;;;;;24.54;33.09;98972.25;25077;1316;3026400;-63
2022/06/12 00:05:41;;;;;;;35.90;15.80;;;;;;;24.45;33.44;98970.86;25048;1316;3054871;-75
2022/06/12 00:08:10;;;;;;;34.20;16.80;;;;;;;24.37;33.48;98967.71;25134;1315;3026592;-69
2022/06/12 00:10:41;;;;;;;35.20;16.20;;;;;;;24.31;33.71;98961.88;25072;1316;3026869;-66
2022/06/12 00:13:11;;;;;;;39.50;17.10;;;;;;;24.21;34.29;98958.79;25107;1316;3026651;-72
2022/06/12 00:15:42;;;;;;;38.90;16.30;;;;;;;24.10;34.31;98953.38;25039;1316;3026578;-63
2022/06/12 00:18:13;;;;;;;32.80;16.10;;;;;;;24.00;34.56;98955.02;25017;1316;3027032;-66
2022/06/12 00:20:44;;;;;;;33.30;15.50;;;;;;;23.93;34.69;98949.55;25083;1316;3026604;-65
2022/06/12 00:23:14;;;;;;;33.00;15.60;;;;;;;23.92;34.68;98951.48;25063;1315;3028662;-64
2022/06/12 00:25:46;;;;;;;30.20;15.50;;;;;;;23.92;34.48;98947.65;25043;1316;3067871;-73
2022/06/12 00:28:15;;;;;;;37.20;16.00;;;;;;;23.95;34.17;98947.21;25067;1316;3026356;-66
2022/06/12 00:30:46;;;;;;;32.10;13.90;;;;;;;23.98;33.75;98944.18;25074;1315;3026961;-72
2022/06/12 00:33:16;;;;;;;32.60;15.30;;;;;;;24.00;33.79;98942.30;25070;1314;3026197;-64
2022/06/12 00:35:45;;;;;;;34.00;14.60;;;;;;;24.03;33.32;98941.92;25036;1316;3026506;-66
2022/06/12 00:38:14;;;;;;;32.20;14.60;;;;;;;24.06;33.46;98940.79;25092;1316;3029720;-66
2022/06/12 00:40:44;;;;;;;33.40;16.40;;;;;;;24.09;33.27;98945.23;25124;1316;3054072;-66
2022/06/12 00:43:13;;;;;;;31.80;14.80;;;;;;;24.10;33.28;98944.66;25078;1316;3026359;-70
2022/06/12 00:46:01;;;;;;;33.80;15.30;;;;;;;24.10;33.42;98946.64;25114;1315;3052013;-67
2022/06/12 00:48:36;;;;;;;26.20;14.80;;;;;;;24.08;33.75;98942.04;25039;1316;3053726;-67
2022/06/12 00:51:05;;;;;;;;;;;;;;;24.05;33.24;98939.58;25077;1316;3056859;-71
2022/06/12 00:53:37;;;;;;;30.80;14.00;;;;;;;24.00;33.31;98945.86;25105;1315;3026356;-64
2022/06/12 00:56:16;;;;;;;35.50;15.30;;;;;;;23.95;33.26;98947.27;25084;1315;3054259;-66
2022/06/12 00:59:13;;;;;;;29.00;14.90;;;;;;;23.91;33.17;98946.77;25068;1316;3059286;-63
2022/06/12 01:01:48;;;;;;;30.30;15.30;;;;;;;23.86;33.46;98947.27;25088;1316;3050181;-71
2022/06/12 01:07:07;;;;;;;27.70;14.90;;;;;;;23.77;33.71;98950.68;25108;1316;3053296;-62
2022/06/12 01:09:38;;;;;;;33.00;16.40;;;;;;;23.76;33.57;98946.73;25079;1312;3027192;-71
2022/06/12 01:12:10;;;;;;;34.80;15.10;;;;;;;23.76;33.78;98945.98;25057;1315;3026598;-61
2022/06/12 01:14:48;;;;;;;35.80;16.00;;;;;;;23.74;33.99;98943.69;25130;1316;3052529;-64
2022/06/12 01:17:17;;;;;;;39.70;16.50;;;;;;;23.74;33.85;98943.64;25038;1315;3055373;-62
2022/06/12 01:19:53;;;;;;;35.80;16.60;;;;;;;23.73;33.96;98942.77;25113;1316;3026696;-71
2022/06/12 01:22:35;;;;;;;31.30;15.70;;;;;;;23.68;34.27;98945.39;25082;1316;3048697;-66
2022/06/12 01:25:29;;;;;;;34.80;15.30;;;;;;;23.61;34.57;98941.90;25115;1316;3053927;-72
2022/06/12 01:28:05;;;;;;;30.90;15.30;;;;;;;23.58;34.77;98939.98;25090;1316;3053141;-63
2022/06/12 01:30:36;;;;;;;40.30;16.70;;;;;;;23.56;35.20;98937.81;25078;1316;3070991;-65
2022/06/12 01:33:12;;;;;;;31.30;16.10;;;;;;;23.55;35.27;98933.05;25071;1316;3029751;-67
2022/06/12 01:36:23;;;;;;;33.80;16.10;;;;;;;23.57;35.14;98931.14;25049;1316;3054443;-69
2022/06/12 01:39:23;;;;;;;32.60;16.40;;;;;;;23.57;35.41;98928.49;25074;1313;3055436;-71
2022/06/12 01:42:25;;;;;;;39.30;16.20;;;;;;;23.54;35.52;98926.98;25093;1316;3058840;-72
2022/06/12 01:45:16;;;;;;;35.90;17.50;;;;;;;23.51;35.50;98928.64;25095;1316;3052897;-65
2022/06/12 01:47:58;;;;;;;34.80;15.40;;;;;;;23.50;35.98;98929.58;25097;1316;3055546;-70
2022/06/12 01:50:35;;;;;;;32.30;15.80;;;;;;;23.49;35.98;98932.50;25041;1315;3051984;-63
2022/06/12 01:53:23;;;;;;;35.70;15.70;;;;;;;23.51;35.77;98933.54;25092;1316;3069670;-63
2022/06/12 01:55:59;;;;;;;36.60;17.10;;;;;;;23.52;35.91;98932.45;25094;1316;3051565;-63
2022/06/12 01:58:31;;;;;;;33.60;15.80;;;;;;;23.51;36.29;98932.30;25125;1315;3052753;-67
2022/06/12 02:01:24;;;;;;;35.00;16.50;;;;;;;23.49;36.16;98931.84;25073;1316;3026858;-66
2022/06/12 02:04:11;;;;;;;36.40;17.20;;;;;;;23.45;36.98;98934.07;25053;1315;3058893;-65
2022/06/12 02:07:09;;;;;;;40.70;17.30;;;;;;;23.41;36.95;98934.48;25113;1316;3049860;-69
2022/06/12 02:09:46;;;;;;;46.10;17.90;;;;;;;23.35;37.16;98938.48;25101;1316;3055289;-62
2022/06/12 02:15:26;;;;;;;36.30;17.80;;;;;;;23.36;37.03;98936.77;25056;1314;3071245;-63
2022/06/12 02:17:58;;;;;;;40.30;17.40;;;;;;;23.34;37.17;98939.15;25067;1315;3051656;-69
2022/06/12 02:20:31;;;;;;;33.80;17.90;;;;;;;23.34;37.01;98936.83;25056;1315;3028994;-63
2022/06/12 02:23:02;;;;;;;34.30;17.30;;;;;;;23.38;37.08;98937.98;25099;1315;3026762;-71
2022/06/12 02:25:33;;;;;;;41.10;17.00;;;;;;;23.40;37.49;98935.74;25047;1316;3027439;-70
2022/06/12 02:28:14;;;;;;;38.60;18.10;;;;;;;23.41;38.13;98933.98;25024;1316;3027933;-69
2022/06/12 02:30:46;;;;;;;34.70;17.20;;;;;;;23.38;38.95;98935.64;25043;1314;3053010;-64
2022/06/12 02:33:16;;;;;;;32.70;17.10;;;;;;;23.36;39.11;98938.14;25054;1314;3026185;-64
2022/06/12 02:36:02;;;;;;;36.00;18.40;;;;;;;23.37;39.28;98933.77;25032;1316;3026585;-70
2022/06/12 02:38:45;;;;;;;43.30;18.80;;;;;;;23.33;39.78;98937.02;25041;1316;3051195;-66
2022/06/12 02:41:48;;;;;;;37.30;18.90;;;;;;;23.24;40.00;98934.77;25058;1316;3055045;-65
2022/06/12 02:44:27;;;;;;;40.00;18.30;;;;;;;23.21;39.75;98947.91;24977;1316;3055266;-67
2022/06/12 02:47:00;;;;;;;33.00;17.10;;;;;;;23.20;40.89;98936.70;25137;1316;3059394;-62
2022/06/12 02:49:29;;;;;;;44.00;17.50;;;;;;;23.15;42.41;98952.19;25060;1316;3026524;-71
2022/06/12 02:52:06;;;;;;;39.00;18.30;;;;;;;23.07;44.32;98944.86;25032;1316;3027821;-66
2022/06/12 02:54:41;;;;;;;47.00;19.90;;;;;;;22.97;45.26;98957.67;25050;1316;3051378;-73
2022/06/12 02:57:19;;;;;;;40.90;19.40;;;;;;;22.89;46.09;98960.77;25092;1314;3071700;-65
2022/06/12 02:59:55;;;;;;;42.20;19.60;;;;;;;22.83;46.42;98967.48;25092;1315;3053126;-67
2022/06/12 03:02:34;;;;;;;44.20;18.60;;;;;;;22.76;46.81;98960.95;25069;1316;3055331;-65
2022/06/12 03:05:22;;;;;;;39.30;18.80;;;;;;;22.68;47.33;98961.88;25056;1316;3055589;-70
2022/06/12 03:08:28;;;;;;;41.20;19.70;;;;;;;22.58;47.47;98966.96;25033;1315;3058955;-67
2022/06/12 03:11:02;;;;;;;44.00;18.90;;;;;;;22.51;47.72;98967.30;24981;1316;3053095;-70
2022/06/12 03:13:32;;;;;;;;;;;;;;;22.49;48.02;98967.77;25095;1316;3054028;-71
2022/06/12 03:16:14;;;;;;;42.20;20.50;;;;;;;22.44;48.46;98970.30;25061;1313;3027334;-66
2022/06/12 03:19:33;;;;;;;50.60;22.00;;;;;;;22.44;48.56;98967.77;25106;1315;3069421;-65
2022/06/12 03:22:10;;;;;;;46.00;23.20;;;;;;;22.40;48.44;98969.98;25099;1316;3048619;-65
2022/06/12 03:24:58;;;;;;;52.50;23.10;;;;;;;22.44;48.23;98965.06;25040;1315;3054988;-64
2022/06/12 03:27:37;;;;;;;51.70;23.20;;;;;;;22.50;47.64;98963.42;25083;1315;3055242;-69
2022/06/12 03:30:12;;;;;;;46.10;22.90;;;;;;;22.54;47.54;98959.11;25093;1313;3059054;-65
2022/06/12 03:33:04;;;;;;;49.00;23.00;;;;;;;22.57;47.66;98954.46;25090;1313;3053985;-65
2022/06/12 03:36:01;;;;;;;50.00;22.50;;;;;;;22.61;48.02;98956.30;25119;1312;3053273;-67
2022/06/12 03:38:38;;;;;;;52.50;22.90;;;;;;;22.66;47.94;98957.23;25078;1313;3055069;-68
2022/06/12 03:41:31;;;;;;;55.00;22.70;;;;;;;22.70;47.91;98952.48;25094;1312;3070843;-65
2022/06/12 03:44:29;;;;;;;47.40;23.40;;;;;;;22.81;47.61;98948.55;25187;1313;3051525;-71
2022/06/12 03:47:25;;;;;;;45.80;22.60;;;;;;;22.91;47.46;98950.20;25069;1316;3054812;-65
2022/06/12 03:50:03;;;;;;;45.90;22.20;;;;;;;23.01;47.49;98946.17;25081;1313;3054792;-68
2022/06/12 03:52:56;;;;;;;41.40;22.20;;;;;;;23.08;47.34;98949.69;25116;1313;3059556;-67
2022/06/12 03:58:30;;;;;;;49.10;21.60;;;;;;;23.19;47.62;98953.38;25129;1316;3054990;-72
2022/06/12 04:00:59;;;;;;;46.80;22.50;;;;;;;23.23;47.71;98950.63;25095;1313;3051518;-65
2022/06/12 04:03:34;;;;;;;45.70;21.70;;;;;;;23.28;47.61;98946.33;25069;1315;3026959;-69
2022/06/12 04:06:05;;;;;;;45.50;20.70;;;;;;;23.33;47.82;98945.67;25031;1313;3051375;-64
2022/06/12 04:08:37;;;;;;;42.30;21.90;;;;;;;23.39;47.67;98945.84;25076;1316;3026278;-66
2022/06/12 04:11:09;;;;;;;49.10;21.10;;;;;;;23.50;47.45;98944.96;25133;1312;3052235;-67
2022/06/12 04:13:39;;;;;;;44.20;22.00;;;;;;;23.59;47.38;98940.94;25135;1313;3026308;-70
2022/06/12 04:16:23;;;;;;;45.50;22.20;;;;;;;23.68;47.56;98948.17;25128;1313;3026752;-71
2022/06/12 04:18:54;;;;;;;43.30;22.80;;;;;;;23.81;47.29;98942.06;25113;1312;3056031;-71
2022/06/12 04:21:44;;;;;;;39.40;22.20;;;;;;;23.92;47.14;98940.25;25115;1313;3026301;-68
2022/06/12 04:24:35;;;;;;;51.90;23.00;;;;;;;24.06;46.89;98936.16;25192;1312;3071425;-69
2022/06/12 04:27:31;;;;;;;44.60;22.30;;;;;;;24.09;47.21;98936.31;25133;1315;3048710;-67
2022/06/12 04:30:17;;;;;;;44.60;22.90;;;;;;;24.14;47.15;98939.63;25108;1316;3054678;-64
2022/06/12 04:32:47;;;;;;;43.60;21.80;;;;;;;24.20;47.22;98939.58;25071;1313;3052992;-74
2022/06/12 04:35:16;;;;;;;39.90;21.60;;;;;;;24.26;47.29;98935.30;25136;1313;3026603;-67
2022/06/12 04:37:46;;;;;;;46.50;22.30;;;;;;;24.31;47.32;98931.44;25156;1312;3027494;-72
2022/06/12 04:40:23;;;;;;;41.00;21.40;;;;;;;24.38;46.96;98931.13;25128;1312;3028249;-66
2022/06/12 04:42:53;;;;;;;38.90;20.90;;;;;;;24.41;47.26;98934.04;25165;1313;3053551;-64
2022/06/12 04:45:23;;;;;;;38.20;20.60;;;;;;;24.42;47.32;98933.95;25084;1312;3026801;-70
2022/06/12 04:47:51;;;;;;;33.20;19.70;;;;;;;24.46;46.90;98935.92;25075;1312;3028354;-67
2022/06/12 04:50:20;;;;;;;35.80;19.10;;;;;;;24.53;46.83;98934.37;25122;1313;3053668;-69
2022/06/12 04:52:49;;;;;;;40.10;20.10;;;;;;;24.65;46.43;98929.99;25000;1316;3026792;-70
2022/06/12 04:55:38;;;;;;;37.10;20.70;;;;;;;24.77;46.54;98934.04;25133;1316;3053056;-65
2022/06/12 04:58:07;;;;;;;35.70;19.70;;;;;;;24.90;46.27;98934.73;25088;1313;3026649;-69
2022/06/12 05:00:36;;;;;;;35.30;18.80;;;;;;;25.06;46.10;98935.25;25117;1313;3051653;-76
2022/06/12 05:03:06;;;;;;;34.90;18.50;;;;;;;25.19;46.01;98933.31;25085;1312;3026471;-74
2022/06/12 05:05:35;;;;;;;36.90;18.80;;;;;;;25.29;46.11;98930.66;25043;1312;3058179;-70
2022/06/12 05:08:05;;;;;;;37.20;19.20;;;;;;;25.40;46.09;98933.05;25073;1313;3026672;-70
2022/06/12 05:10:35;;;;;;;43.00;19.00;;;;;;;25.46;46.54;98927.57;25090;1313;3026714;-73
2022/06/12 05:13:05;;;;;;;36.20;17.90;;;;;;;25.54;46.19;98924.94;25053;1313;3057346;-60
2022/06/12 05:15:36;;;;;;;30.70;17.90;;;;;;;25.61;45.37;98920.94;25097;1315;3027667;-68
2022/06/12 05:18:07;;;;;;;38.20;17.50;;;;;;;25.69;45.10;98923.64;25050;1316;3026479;-71
2022/06/12 05:20:41;;;;;;;29.30;17.00;;;;;;;25.78;44.84;98921.09;25081;1313;3059218;-67
2022/06/12 05:23:10;;;;;;;37.30;17.90;;;;;;;25.84;44.52;98920.14;25109;1312;3026544;-67
2022/06/12 05:25:40;;;;;;;37.30;17.00;;;;;;;25.86;44.49;98918.95;25053;1313;3054946;-70
2022/06/12 05:28:10;;;;;;;34.20;16.90;;;;;;;25.90;44.39;98913.94;25054;1316;3027032;-64
2022/06/12 05:30:40;;;;;;;30.50;16.30;;;;;;;25.94;44.47;98911.48;25091;1315;3026073;-73
2022/06/12 05:33:09;;;;;;;33.10;16.50;;;;;;;26.01;43.97;98911.33;25032;1316;3027110;-69
2022/06/12 05:35:39;;;;;;;36.00;16.40;;;;;;;26.04;43.77;98909.13;25125;1312;3026294;-71
2022/06/12 05:38:08;;;;;;;28.20;16.60;;;;;;;26.07;44.00;98905.06;25139;1313;3027078;-63
2022/06/12 05:40:38;;;;;;;31.80;15.60;;;;;;;26.12;44.04;98904.13;25103;1313;3052934;-65
2022/06/12 05:43:08;;;;;;;29.30;16.20;;;;;;;26.18;43.85;98904.23;25135;1316;3027009;-64
2022/06/12 05:45:37;;;;;;;34.50;15.70;;;;;;;26.24;43.87;98901.65;25067;1313;3026107;-61
2022/06/12 05:48:10;;;;;;;30.60;14.10;;;;;;;26.34;43.28;98900.98;25083;1316;3026569;-66
2022/06/12 05:50:55;;;;;;;26.10;14.30;;;;;;;26.47;42.96;98903.14;25113;1313;3052635;-61
2022/06/12 05:53:25;;;;;;;24.70;13.60;;;;;;;26.52;42.85;98904.10;25093;1313;3053263;-66
2022/06/12 05:55:55;;;;;;;34.30;12.80;;;;;;;26.58;42.82;98903.62;25136;1313;3026819;-63
2022/06/12 05:58:25;;;;;;;24.60;13.70;;;;;;;26.65;42.67;98899.26;25104;1313;3026135;-68
2022/06/12 06:00:55;;;;;;;25.30;14.00;;;;;;;26.71;43.07;98896.20;25084;1316;3026411;-69
2022/06/12 06:03:24;;;;;;;35.60;14.50;;;;;;;26.79;43.22;98895.77;25087;1316;3026577;-69
2022/06/12 06:05:53;;;;;;;22.20;13.00;;;;;;;26.86;42.83;98899.67;25038;1316;3053870;-69
2022/06/12 06:08:22;;;;;;;24.30;11.90;;;;;;;26.95;42.12;98897.36;25145;1313;3026784;-63
2022/06/12 06:10:55;;;;;;;25.70;12.90;;;;;;;27.08;41.58;98894.16;25045;1316;3058981;-73
2022/06/12 06:13:24;;;;;;;21.90;12.10;;;;;;;27.16;41.34;98889.42;25142;1313;3026252;-62
2022/06/12 06:15:53;;;;;;;26.10;11.20;;;;;;;27.22;41.05;98895.04;25048;1316;3055092;-67
2022/06/12 06:18:22;;;;;;;49.20;11.60;;;;;;;27.27;41.02;98894.40;25093;1314;3026699;-65
2022/06/12 06:20:51;;;;;;;19.60;11.30;;;;;;;27.30;41.33;98894.16;25075;1315;3052472;-63
2022/06/12 06:23:23;;;;;;;19.00;10.30;;;;;;;27.39;41.17;98889.95;25106;1316;3025938;-62
2022/06/12 06:25:52;;;;;;;16.40;9.80;;;;;;;27.50;40.61;98891.27;25057;1316;3026408;-71
2022/06/12 06:28:21;;;;;;;23.60;11.30;;;;;;;27.59;40.82;98889.31;25091;1315;3053568;-69
2022/06/12 06:30:50;;;;;;;33.10;14.20;;;;;;;27.64;41.16;98883.93;25107;1315;3026497;-64
2022/06/12 06:33:19;;;;;;;35.40;12.80;;;;;;;27.69;40.86;98885.85;25056;1313;3027168;-73
2022/06/12 06:35:49;;;;;;;23.00;11.80;;;;;;;27.75;40.95;98892.07;25085;1313;3054580;-68
2022/06/12 06:38:18;;;;;;;21.80;10.80;;;;;;;27.83;40.59;98890.84;25060;1316;3026535;-65
2022/06/12 06:40:47;;;;;;;20.00;10.40;;;;;;;27.91;40.04;98891.40;25064;1316;3026861;-66
2022/06/12 06:43:16;;;;;;;25.30;11.70;;;;;;;27.97;39.90;98897.30;25175;1313;3050394;-65
2022/06/12 06:48:34;;;;;;;24.50;11.40;;;;;;;28.04;40.28;98886.38;25109;1316;3058639;-68
2022/06/12 06:51:06;;;;;;;26.70;12.20;;;;;;;28.13;39.92;98892.12;25166;1313;3026433;-64
2022/06/12 06:53:35;;;;;;;32.60;12.60;;;;;;;28.24;40.00;98891.80;25135;1313;3026658;-70
2022/06/12 06:56:05;;;;;;;31.70;13.40;;;;;;;28.26;39.80;98889.54;25207;1313;3026460;-64
2022/06/12 06:58:35;;;;;;;30.10;12.90;;;;;;;28.26;39.74;98889.26;25198;1313;3026224;-68
2022/06/12 07:01:04;;;;;;;22.30;11.80;;;;;;;28.39;39.36;98886.27;25299;1313;3027421;-64
2022/06/12 07:03:33;;;;;;;21.90;10.50;;;;;;;28.41;39.01;98885.79;25113;1315;3026671;-60
2022/06/12 07:06:04;;;;;;;23.30;11.50;;;;;;;28.45;38.92;98887.85;25072;1313;3071471;-64
2022/06/12 07:08:34;;;;;;;21.30;9.70;;;;;;;28.53;38.65;98891.82;25111;1313;3026597;-71
2022/06/12 07:11:03;;;;;;;19.50;10.50;;;;;;;28.56;38.23;98891.27;25067;1313;3028909;-68
2022/06/12 07:13:32;;;;;;;25.70;9.00;;;;;;;28.57;38.24;98888.27;25074;1316;3070610;-64
2022/06/12 07:16:01;;;;;;;17.30;9.40;;;;;;;28.64;37.92;98888.02;25052;1313;3026514;-70
2022/06/12 07:18:30;;;;;;;22.40;9.80;;;;;;;28.65;37.92;98888.80;24661;1313;3573201;-65
2022/06/12 07:21:03;;;;;;;19.50;9.90;;;;;;;28.75;37.71;98883.83;25024;1313;3026546;-64
2022/06/12 07:23:32;;;;;;;25.70;10.90;;;;;;;28.83;37.95;98887.05;25092;1313;3055176;-75
2022/06/12 07:26:04;;;;;;;22.40;10.30;;;;;;;28.84;38.05;98889.78;25065;1313;3026387;-67
2022/06/12 07:28:37;;;;;;;26.00;11.30;;;;;;;29.00;37.78;98881.40;25050;1315;3026192;-70
2022/06/12 07:31:07;;;;;;;27.90;11.10;;;;;;;29.05;37.60;98881.83;25126;1315;3049352;-64
2022/06/12 07:33:39;;;;;;;24.90;11.30;;;;;;;29.15;37.75;98883.41;25088;1316;3026587;-63
2022/06/12 07:36:10;;;;;;;24.90;12.70;;;;;;;29.07;37.53;98882.75;25008;1316;3026499;-60
2022/06/12 07:38:40;;;;;;;31.30;12.60;;;;;;;29.21;37.51;98883.11;25608;1315;3026707;-59
2022/06/12 07:41:10;;;;;;;27.20;14.00;;;;;;;29.27;37.82;98879.02;25039;1316;3029258;-58
2022/06/12 07:43:39;;;;;;;32.30;13.90;;;;;;;29.37;37.61;98875.30;25094;1315;3051949;-59
2022/06/12 07:46:10;;;;;;;28.10;12.80;;;;;;;29.40;37.46;98881.05;25098;1315;3027003;-63
2022/06/12 07:48:46;;;;;;;20.70;10.80;;;;;;;29.49;36.98;98875.71;25013;1316;3049648;-64
2022/06/12 07:51:18;;;;;;;24.00;12.00;;;;;;;29.59;36.86;98876.82;25114;1316;3026676;-61
2022/06/12 07:53:48;;;;;;;25.20;12.50;;;;;;;29.67;36.83;98877.30;25058;1316;3026783;-63
2022/06/12 07:56:17;;;;;;;24.20;13.10;;;;;;;29.74;36.56;98880.60;25090;1316;3026399;-60
2022/06/12 07:58:47;;;;;;;25.30;13.70;;;;;;;29.84;36.65;98878.59;25042;1316;3026355;-61
2022/06/12 08:01:20;;;;;;;25.30;11.80;;;;;;;29.91;36.44;98876.61;25113;1316;3026695;-60
2022/06/12 08:03:49;;;;;;;20.40;11.80;;;;;;;29.95;36.42;98881.81;25079;1315;3026662;-61
2022/06/12 08:06:19;;;;;;;22.10;11.70;;;;;;;29.99;36.15;98880.76;25096;1316;3026502;-59
2022/06/12 08:08:50;;;;;;;22.20;12.10;;;;;;;30.03;35.90;98877.55;25111;1316;3053005;-63
2022/06/12 08:11:21;;;;;;;35.30;13.70;;;;;;;30.14;35.99;98874.77;25049;1316;3026921;-60
2022/06/12 08:13:50;;;;;;;22.70;12.50;;;;;;;30.09;35.79;98865.35;25074;1315;3026864;-63
2022/06/12 08:16:20;;;;;;;28.20;12.70;;;;;;;30.15;35.98;98867.38;25113;1316;3054773;-62
2022/06/12 08:18:53;;;;;;;26.80;12.90;;;;;;;30.10;36.15;98866.71;25112;1316;3028255;-61
2022/06/12 08:21:22;;;;;;;22.20;10.40;;;;;;;30.27;35.81;98867.20;25132;1316;3026712;-62
2022/06/12 08:23:58;;;;;;;22.10;10.20;;;;;;;30.41;35.13;98865.81;25078;1316;3026397;-61
2022/06/12 08:26:29;;;;;;;31.10;8.80;;;;;;;30.56;34.71;98861.19;25078;1316;3055986;-62
2022/06/12 08:29:03;;;;;;;16.50;8.10;;;;;;;30.67;34.98;98864.89;25038;1315;3026638;-60
2022/06/12 08:31:47;;;;;;;16.90;8.20;;;;;;;30.83;34.82;98864.23;25099;1316;3068658;-64
2022/06/12 08:34:22;;;;;;;16.50;7.50;;;;;;;30.94;34.56;98864.39;25080;1316;3049692;-61
2022/06/12 08:36:55;;;;;;;11.50;7.30;;;;;;;31.09;33.75;98859.81;25089;1316;3056694;-65
2022/06/12 08:39:27;;;;;;;9.90;6.90;;;;;;;31.21;33.58;98858.21;25136;1316;3053849;-60
2022/06/12 08:42:11;;;;;;;15.20;7.20;;;;;;;31.37;33.52;98854.20;25121;1316;3026661;-62
2022/06/12 08:44:54;;;;;;;14.60;6.30;;;;;;;31.49;33.04;98850.33;25123;1316;3052286;-61
2022/06/12 08:47:33;;;;;;;15.60;6.60;;;;;;;31.38;32.93;98849.16;25084;1315;3053236;-64
2022/06/12 08:50:22;;;;;;;12.80;6.10;;;;;;;31.51;33.07;98843.55;25103;1315;3051456;-62
2022/06/12 08:52:57;;;;;;;18.20;5.80;;;;;;;31.67;32.45;98844.48;25097;1314;3069613;-62
2022/06/12 08:55:34;;;;;;;9.80;6.10;;;;;;;31.77;32.25;98840.52;25102;1315;3052243;-62
2022/06/12 08:58:25;;;;;;;16.00;7.20;;;;;;;31.79;32.30;98835.29;25058;1316;3055105;-61
2022/06/12 09:00:55;;;;;;;14.10;6.20;;;;;;;31.86;32.25;98830.06;25067;1314;3052095;-64
2022/06/12 09:03:31;;;;;;;14.80;7.10;;;;;;;31.98;32.14;98829.86;25101;1316;3026487;-65
2022/06/12 09:06:38;;;;;;;11.60;5.90;;;;;;;32.08;31.73;98827.02;25087;1316;3052216;-63
2022/06/12 09:09:24;;;;;;;10.10;6.30;;;;;;;32.20;30.80;98821.23;25034;1316;3055754;-59
2022/06/12 09:12:35;;;;;;;13.20;5.70;;;;;;;32.34;30.63;98819.95;25096;1316;3052038;-59
2022/06/12 09:15:33;;;;;;;13.90;6.40;;;;;;;32.44;29.99;98814.80;25047;1316;3069511;-61
2022/06/12 09:18:08;;;;;;;13.00;6.50;;;;;;;32.39;31.05;98811.33;25061;1316;3053396;-60
2022/06/12 09:20:57;;;;;;;19.60;7.20;;;;;;;32.50;30.30;98810.36;25120;1316;3026626;-62
2022/06/12 09:23:55;;;;;;;16.40;7.30;;;;;;;32.58;30.18;98810.68;25062;1316;3055379;-65
2022/06/12 09:26:49;;;;;;;10.70;6.90;;;;;;;32.67;29.56;98807.31;25091;1316;3057434;-60
2022/06/12 09:29:31;;;;;;;13.00;7.10;;;;;;;32.75;29.62;98805.68;25022;1316;3049012;-58
2022/06/12 09:32:09;;;;;;;11.80;7.20;;;;;;;32.63;29.57;98808.08;25050;1316;3055856;-63
2022/06/12 09:34:43;;;;;;;19.60;7.30;;;;;;;32.70;29.11;98800.55;25072;1316;3054384;-63
2022/06/12 09:40:31;;;;;;;13.90;7.20;;;;;;;33.05;29.22;98801.37;25028;1315;3048331;-61
2022/06/12 09:43:08;;;;;;;14.70;7.40;;;;;;;33.21;28.83;98788.46;25032;1315;3052192;-63
2022/06/12 09:46:07;;;;;;;13.90;6.40;;;;;;;33.36;28.66;98782.20;25067;1316;3052188;-62
2022/06/12 09:49:09;;;;;;;16.30;7.20;;;;;;;33.46;28.47;98778.19;25063;1316;3057922;-61
2022/06/12 09:51:50;;;;;;;22.90;6.70;;;;;;;33.47;28.26;98772.86;25043;1316;3052716;-61
2022/06/12 09:54:24;;;;;;;14.60;6.80;;;;;;;33.52;28.31;98772.53;25141;1316;3052460;-62
2022/06/12 09:57:01;;;;;;;13.20;8.30;;;;;;;33.56;28.16;98773.10;25109;1316;3054341;-63
2022/06/12 09:59:38;;;;;;;16.00;7.80;;;;;;;33.54;27.62;98769.98;25063;1315;3071128;-61
2022/06/12 10:02:22;;;;;;;19.40;8.70;;;;;;;33.71;27.47;98766.06;25041;1316;3053261;-63
2022/06/12 10:04:56;;;;;;;19.00;9.10;;;;;;;33.78;26.54;98757.19;25107;1315;3055270;-65
2022/06/12 10:07:43;;;;;;;14.60;9.70;;;;;;;33.80;26.57;98758.14;25058;1316;3052650;-61
2022/06/12 10:10:19;;;;;;;20.40;10.30;;;;;;;33.91;26.61;98752.80;25053;1316;3058772;-62
2022/06/12 10:12:51;;;;;;;22.00;9.60;;;;;;;33.97;26.65;98749.80;25027;1316;3049866;-64
2022/06/12 10:15:23;;;;;;;15.10;9.40;;;;;;;34.10;26.56;98746.80;25110;1316;3026661;-61
2022/06/12 10:17:57;;;;;;;19.80;10.00;;;;;;;34.19;26.19;98744.23;25068;1315;3027452;-63
2022/06/12 10:20:29;;;;;;;18.20;10.50;;;;;;;34.32;25.96;98741.04;25059;1316;3027085;-63
2022/06/12 10:22:59;;;;;;;25.40;9.90;;;;;;;34.37;25.78;98738.39;25051;1315;3026527;-60
2022/06/12 10:25:36;;;;;;;21.90;9.40;;;;;;;34.35;26.15;98731.17;25060;1316;3026302;-63
2022/06/12 10:28:14;;;;;;;15.30;8.00;;;;;;;34.42;26.85;98735.79;25109;1316;3053142;-60
2022/06/12 10:31:10;;;;;;;18.30;8.90;;;;;;;34.58;26.96;98737.40;25028;1316;3056855;-64
2022/06/12 10:33:42;;;;;;;18.90;8.50;;;;;;;34.63;26.55;98731.91;25073;1316;3053468;-62
2022/06/12 10:36:23;;;;;;;22.30;9.30;;;;;;;34.60;26.90;98731.58;25063;1316;3026500;-63
2022/06/12 10:39:03;;;;;;;21.60;8.60;;;;;;;34.67;26.99;98722.38;25076;1316;3050848;-62
2022/06/12 10:41:33;;;;;;;18.40;8.90;;;;;;;34.47;26.25;98716.44;25041;1315;3068992;-59
2022/06/12 10:44:03;;;;;;;19.60;9.50;;;;;;;34.54;26.27;98712.81;25049;1318;3026787;-63
2022/06/12 10:46:32;;;;;;;17.20;9.30;;;;;;;34.67;26.07;98711.36;25059;1315;3029171;-61
2022/06/12 10:49:24;;;;;;;16.50;9.30;;;;;;;34.76;25.50;98709.02;25200;1316;3026407;-65
2022/06/12 10:52:04;;;;;;;13.70;9.20;;;;;;;34.67;25.94;98708.19;25132;1315;3057039;-68
2022/06/12 10:54:33;;;;;;;18.80;9.10;;;;;;;34.67;25.89;98709.61;25066;1316;3053999;-62
2022/06/12 10:57:41;;;;;;;23.10;9.60;;;;;;;34.85;26.02;98709.50;25115;1316;3026886;-59
2022/06/12 11:00:14;;;;;;;18.50;9.60;;;;;;;34.96;27.14;98706.61;25014;1315;3054197;-61
2022/06/12 11:03:08;;;;;;;18.70;9.60;;;;;;;35.13;26.27;98703.45;25119;1316;3027149;-61
2022/06/12 11:06:26;;;;;;;15.20;8.90;;;;;;;35.28;25.55;98702.91;25107;1316;3050310;-63
2022/06/12 11:09:12;;;;;;;19.30;8.80;;;;;;;35.55;25.00;98702.00;25027;1318;3055255;-62
2022/06/12 11:12:05;;;;;;;17.20;8.10;;;;;;;35.67;24.26;98695.75;25129;1316;3053603;-61
2022/06/12 11:15:07;;;;;;;23.80;8.50;;;;;;;35.61;24.23;98687.83;25040;1315;3058841;-62
2022/06/12 11:18:14;;;;;;;16.80;8.80;;;;;;;35.72;24.19;98681.09;25095;1316;3052755;-60
2022/06/12 11:20:51;;;;;;;15.50;8.40;;;;;;;35.83;24.31;98672.11;25087;1316;3053879;-60
2022/06/12 11:23:51;;;;;;;15.20;9.00;;;;;;;35.92;24.31;98668.15;25054;1316;3054467;-59
2022/06/12 11:26:31;;;;;;;11.40;7.70;;;;;;;36.06;24.41;98658.42;25056;1316;3068498;-62
2022/06/12 11:29:22;;;;;;;17.50;8.60;;;;;;;36.18;24.37;98659.11;25043;1316;3052189;-63
2022/06/12 11:32:00;;;;;;;20.70;9.60;;;;;;;36.26;23.01;98653.72;25124;1316;3052554;-63
2022/06/12 11:34:54;;;;;;;19.90;8.60;;;;;;;36.34;22.73;98653.15;25061;1319;3055561;-62
2022/06/12 11:38:04;;;;;;;15.80;8.70;;;;;;;36.41;23.04;98663.45;25101;1315;3059056;-62
2022/06/12 11:40:39;;;;;;;17.20;8.10;;;;;;;36.43;23.31;98660.32;25058;1318;3051551;-61
2022/06/12 11:43:18;;;;;;;13.70;7.80;;;;;;;36.47;23.96;98668.50;24993;1313;3056195;-61
2022/06/12 11:45:54;;;;;;;19.60;8.40;;;;;;;36.43;23.46;98677.48;25041;1316;3050178;-65
2022/06/12 11:48:29;;;;;;;15.70;7.40;;;;;;;36.09;23.02;98681.64;25051;1316;3070467;-62
2022/06/12 11:51:05;;;;;;;17.40;7.70;;;;;;;35.87;23.38;98685.99;25028;1316;3052395;-62
2022/06/12 11:53:38;;;;;;;28.20;8.00;;;;;;;35.80;23.16;98688.84;25082;1315;3053114;-61
2022/06/12 11:56:29;;;;;;;17.30;8.20;;;;;;;35.60;23.29;98688.61;25087;1315;3054704;-62
2022/06/12 11:59:23;;;;;;;16.90;6.40;;;;;;;35.36;24.46;98682.58;25062;1316;3058712;-64
2022/06/12 12:01:59;;;;;;;19.90;6.00;;;;;;;34.96;26.20;98686.64;25052;1316;3051573;-59
2022/06/12 12:04:46;;;;;;;13.60;5.00;;;;;;;34.55;27.00;98689.79;25132;1316;3055446;-63